createdAt,value
2022-09-11T00:01:18.326Z,4.13
2022-09-11T00:03:47.940Z,4.67
2022-09-11T00:06:28.983Z,6.63
2022-09-11T00:09:01.567Z,4.70
2022-09-11T00:11:32.924Z,4.57
2022-09-11T00:14:01.757Z,5.00
2022-09-11T00:16:33.855Z,4.77
2022-09-11T00:19:07.445Z,5.20
2022-09-11T00:21:36.389Z,6.73
2022-09-11T00:24:09.858Z,6.03
2022-09-11T00:26:38.371Z,6.33
2022-09-11T00:29:06.474Z,5.43
2022-09-11T00:31:35.050Z,4.77
2022-09-11T00:34:03.117Z,6.53
2022-09-11T00:36:32.990Z,5.03
2022-09-11T00:39:01.301Z,6.00
2022-09-11T00:41:33.295Z,5.63
2022-09-11T00:44:04.678Z,5.60
2022-09-11T00:46:40.570Z,6.40
2022-09-11T00:49:18.682Z,5.43
2022-09-11T00:51:50.357Z,6.87
2022-09-11T00:54:25.561Z,5.60
2022-09-11T00:56:57.086Z,5.70
2022-09-11T00:59:27.716Z,5.03
2022-09-11T01:01:55.849Z,6.77
2022-09-11T01:04:24.713Z,5.40
2022-09-11T01:06:56.439Z,5.90
2022-09-11T01:09:25.588Z,8.27
2022-09-11T01:12:06.700Z,6.33
2022-09-11T01:14:45.406Z,6.73
2022-09-11T01:17:24.158Z,7.17
2022-09-11T01:20:23.853Z,6.53
2022-09-11T01:23:31.308Z,5.67
2022-09-11T01:26:26.501Z,7.87
2022-09-11T01:29:03.303Z,5.70
2022-09-11T01:31:40.331Z,7.30
2022-09-11T01:34:14.595Z,4.83
2022-09-11T01:36:45.983Z,4.93
2022-09-11T01:39:17.822Z,6.00
2022-09-11T01:41:50.249Z,5.67
2022-09-11T01:44:22.987Z,4.80
2022-09-11T01:46:53.682Z,8.57
2022-09-11T01:49:25.845Z,5.83
2022-09-11T01:51:56.419Z,5.07
2022-09-11T01:54:29.108Z,5.00
2022-09-11T01:57:03.022Z,5.70
2022-09-11T01:59:38.074Z,5.13
2022-09-11T02:02:09.581Z,5.07
2022-09-11T02:04:42.602Z,6.37
2022-09-11T02:07:15.196Z,5.53
2022-09-11T02:09:48.283Z,4.80
2022-09-11T02:12:20.341Z,5.37
2022-09-11T02:14:52.192Z,5.20
2022-09-11T02:17:28.833Z,6.17
2022-09-11T02:20:00.623Z,6.27
2022-09-11T02:22:28.669Z,5.33
2022-09-11T02:24:56.867Z,6.77
2022-09-11T02:27:28.232Z,5.97
2022-09-11T02:29:59.359Z,7.27
2022-09-11T02:32:29.909Z,5.03
2022-09-11T02:34:59.222Z,5.80
2022-09-11T02:37:41.477Z,5.67
2022-09-11T02:40:32.075Z,6.97
2022-09-11T02:43:26.952Z,5.17
2022-09-11T02:46:12.311Z,7.13
2022-09-11T02:48:47.717Z,6.30
2022-09-11T02:51:27.078Z,5.77
2022-09-11T02:54:02.995Z,5.83
2022-09-11T02:56:38.968Z,6.77
2022-09-11T02:59:13.336Z,6.30
2022-09-11T03:01:55.193Z,5.87
2022-09-11T03:04:26.640Z,7.20
2022-09-11T03:06:56.325Z,6.60
2022-09-11T03:09:24.317Z,9.93
2022-09-11T03:11:56.509Z,10.60
2022-09-11T03:14:24.522Z,8.40
2022-09-11T03:16:54.195Z,7.47
2022-09-11T03:19:22.155Z,8.03
2022-09-11T03:21:50.996Z,6.77
2022-09-11T03:24:19.004Z,8.77
2022-09-11T03:26:47.642Z,8.40
2022-09-11T03:29:17.894Z,8.17
2022-09-11T03:31:46.641Z,8.80
2022-09-11T03:34:17.709Z,7.63
2022-09-11T03:36:47.968Z,8.33
2022-09-11T03:39:16.004Z,8.00
2022-09-11T03:41:44.098Z,9.60
2022-09-11T03:44:12.706Z,7.00
2022-09-11T03:46:41.067Z,8.40
2022-09-11T03:49:10.196Z,6.93
2022-09-11T03:51:39.493Z,8.50
2022-09-11T03:54:08.033Z,10.83
2022-09-11T03:56:37.175Z,7.00
2022-09-11T03:59:05.196Z,7.50
2022-09-11T04:01:33.357Z,10.67
2022-09-11T04:04:01.763Z,9.57
2022-09-11T04:06:35.272Z,9.07
2022-09-11T04:09:06.125Z,8.93
2022-09-11T04:11:38.703Z,8.13
2022-09-11T04:14:10.172Z,8.47
2022-09-11T04:16:39.653Z,8.00
2022-09-11T04:19:07.775Z,9.37
2022-09-11T04:21:35.790Z,8.57
2022-09-11T04:24:03.972Z,8.50
2022-09-11T04:26:35.355Z,6.90
2022-09-11T04:29:18.424Z,10.43
2022-09-11T04:31:47.369Z,10.50
2022-09-11T04:34:17.026Z,10.43
2022-09-11T04:36:44.967Z,10.07
2022-09-11T04:39:17.566Z,10.40
2022-09-11T04:41:48.296Z,10.93
2022-09-11T04:44:17.518Z,11.60
2022-09-11T04:46:46.227Z,15.77
2022-09-11T04:49:14.715Z,12.20
2022-09-11T04:51:43.092Z,11.60
2022-09-11T04:54:15.731Z,11.37
2022-09-11T04:56:43.709Z,13.63
2022-09-11T04:59:16.562Z,13.00
2022-09-11T05:01:49.568Z,11.90
2022-09-11T05:04:21.743Z,13.50
2022-09-11T05:06:51.138Z,11.67
2022-09-11T05:09:20.620Z,12.43
2022-09-11T05:11:50.403Z,13.30
2022-09-11T05:14:19.802Z,12.47
2022-09-11T05:16:52.816Z,10.90
2022-09-11T05:19:25.210Z,10.63
2022-09-11T05:21:53.155Z,12.20
2022-09-11T05:24:21.178Z,12.90
2022-09-11T05:26:49.177Z,11.87
2022-09-11T05:29:20.210Z,12.83
2022-09-11T05:31:55.594Z,11.60
2022-09-11T05:34:23.626Z,13.13
2022-09-11T05:36:52.320Z,13.27
2022-09-11T05:39:20.498Z,11.80
2022-09-11T05:41:51.420Z,13.57
2022-09-11T05:44:20.944Z,13.37
2022-09-11T05:46:49.336Z,12.90
2022-09-11T05:49:17.478Z,14.57
2022-09-11T05:51:45.444Z,13.23
2022-09-11T05:54:13.396Z,15.27
2022-09-11T05:56:42.442Z,13.27
2022-09-11T05:59:16.315Z,13.83
2022-09-11T06:01:47.774Z,13.40
2022-09-11T06:04:22.399Z,13.13
2022-09-11T06:06:52.884Z,14.87
2022-09-11T06:09:21.105Z,15.47
2022-09-11T06:11:53.001Z,14.07
2022-09-11T06:14:21.495Z,17.10
2022-09-11T06:16:54.256Z,15.03
2022-09-11T06:19:22.281Z,16.67
2022-09-11T06:21:51.240Z,16.37
2022-09-11T06:24:25.810Z,16.07
2022-09-11T06:26:53.924Z,15.37
2022-09-11T06:29:21.970Z,15.53
2022-09-11T06:31:53.866Z,12.83
2022-09-11T06:34:24.742Z,16.43
2022-09-11T06:36:53.325Z,16.27
2022-09-11T06:39:23.573Z,14.53
2022-09-11T06:41:53.178Z,14.03
2022-09-11T06:44:27.443Z,12.07
2022-09-11T06:46:59.333Z,15.00
2022-09-11T06:49:27.847Z,13.23
2022-09-11T06:52:14.344Z,14.43
2022-09-11T06:54:50.378Z,12.87
2022-09-11T06:57:19.216Z,12.03
2022-09-11T06:59:47.750Z,14.80
2022-09-11T07:02:18.605Z,13.13
2022-09-11T07:04:48.154Z,13.73
2022-09-11T07:07:16.745Z,11.30
2022-09-11T07:09:44.680Z,12.80
2022-09-11T07:12:13.624Z,13.33
2022-09-11T07:14:42.328Z,12.30
2022-09-11T07:17:15.991Z,11.80
2022-09-11T07:19:47.382Z,12.63
2022-09-11T07:22:16.356Z,12.67
2022-09-11T07:24:44.344Z,12.37
2022-09-11T07:27:13.799Z,12.10
2022-09-11T07:29:42.560Z,14.67
2022-09-11T07:32:10.543Z,10.33
2022-09-11T07:34:40.298Z,11.97
2022-09-11T07:37:12.714Z,11.83
2022-09-11T07:39:41.698Z,10.23
2022-09-11T07:42:19.129Z,9.63
2022-09-11T07:44:50.214Z,11.00
2022-09-11T07:47:18.848Z,9.10
2022-09-11T07:49:50.961Z,9.27
2022-09-11T07:52:21.559Z,8.87
2022-09-11T07:54:53.454Z,9.23
2022-09-11T07:57:25.135Z,10.13
2022-09-11T07:59:53.764Z,8.83
2022-09-11T08:02:22.528Z,9.53
2022-09-11T08:04:51.632Z,9.87
2022-09-11T08:07:23.089Z,10.27
2022-09-11T08:10:10.174Z,8.90
2022-09-11T08:12:39.868Z,8.93
2022-09-11T08:15:08.887Z,10.07
2022-09-11T08:17:37.508Z,9.50
2022-09-11T08:20:06.179Z,7.40
2022-09-11T08:22:35.780Z,7.77
2022-09-11T08:25:03.953Z,9.20
2022-09-11T08:27:32.190Z,8.57
2022-09-11T08:30:00.205Z,10.63
2022-09-11T08:32:29.292Z,9.03
2022-09-11T08:34:58.503Z,9.27
2022-09-11T08:37:26.526Z,9.20
2022-09-11T08:39:56.988Z,8.20
2022-09-11T08:42:27.189Z,9.40
2022-09-11T08:44:58.791Z,8.93
2022-09-11T08:47:39.047Z,9.13
2022-09-11T08:50:13.087Z,8.17
2022-09-11T08:52:43.025Z,8.80
2022-09-11T08:55:17.172Z,8.53
2022-09-11T08:57:54.549Z,8.37
2022-09-11T09:00:35.968Z,8.80
2022-09-11T09:03:33.214Z,8.97
2022-09-11T09:06:21.562Z,10.43
2022-09-11T09:09:00.965Z,8.73
2022-09-11T09:11:37.418Z,8.83
2022-09-11T09:14:32.761Z,8.17
2022-09-11T09:17:06.087Z,8.60
2022-09-11T09:19:43.254Z,8.37
2022-09-11T09:22:18.907Z,7.90
2022-09-11T09:24:51.084Z,8.53
2022-09-11T09:27:23.039Z,7.47
2022-09-11T09:29:55.623Z,9.40
2022-09-11T09:32:30.939Z,8.00
2022-09-11T09:35:03.747Z,8.17
2022-09-11T09:37:31.755Z,6.87
2022-09-11T09:40:06.274Z,6.47
2022-09-11T09:43:06.028Z,6.47
2022-09-11T09:45:50.684Z,7.83
2022-09-11T09:48:18.862Z,5.73
2022-09-11T09:50:46.952Z,5.10
2022-09-11T09:53:29.660Z,6.80
2022-09-11T09:56:00.392Z,6.37
2022-09-11T09:58:35.358Z,9.03
2022-09-11T10:01:03.537Z,7.07
2022-09-11T10:03:31.605Z,7.57
2022-09-11T10:06:00.219Z,7.37
2022-09-11T10:08:33.663Z,6.80
2022-09-11T10:11:03.792Z,6.87
2022-09-11T10:13:35.843Z,8.43
2022-09-11T10:16:06.123Z,6.97
2022-09-11T10:18:42.471Z,7.03
2022-09-11T10:21:22.257Z,6.53
2022-09-11T10:23:53.596Z,6.47
2022-09-11T10:26:27.481Z,6.07
2022-09-11T10:29:02.868Z,5.43
2022-09-11T10:31:31.053Z,4.93
2022-09-11T10:34:01.492Z,4.67
2022-09-11T10:36:31.642Z,6.63
2022-09-11T10:39:01.962Z,4.07
2022-09-11T10:41:34.085Z,4.50
2022-09-11T10:44:07.860Z,4.23
2022-09-11T10:46:40.455Z,4.20
2022-09-11T10:49:20.230Z,3.67
2022-09-11T10:52:03.479Z,7.13
2022-09-11T10:54:54.107Z,5.03
2022-09-11T10:57:28.649Z,4.93
2022-09-11T11:00:08.206Z,5.87
2022-09-11T11:02:39.582Z,6.13
2022-09-11T11:05:10.088Z,5.43
2022-09-11T11:08:02.035Z,5.20
2022-09-11T11:10:42.354Z,5.23
2022-09-11T11:13:24.501Z,5.00
2022-09-11T11:16:04.725Z,5.10
2022-09-11T11:18:54.804Z,6.60
2022-09-11T11:21:37.398Z,4.30
2022-09-11T11:24:23.731Z,6.20
2022-09-11T11:27:07.595Z,5.63
2022-09-11T11:29:56.218Z,5.40
2022-09-11T11:32:43.165Z,4.83
2022-09-11T11:35:22.594Z,6.53
2022-09-11T11:37:53.361Z,6.17
2022-09-11T11:40:28.071Z,5.10
2022-09-11T11:43:01.549Z,4.57
2022-09-11T11:45:34.317Z,5.07
2022-09-11T11:48:13.933Z,5.00
2022-09-11T11:50:44.913Z,4.20
2022-09-11T11:53:21.416Z,4.87
2022-09-11T11:56:00.887Z,4.53
2022-09-11T11:58:40.474Z,5.13
2022-09-11T12:01:15.898Z,5.20
2022-09-11T12:03:51.921Z,3.80
2022-09-11T12:06:20.428Z,4.60
2022-09-11T12:08:49.740Z,4.13
2022-09-11T12:11:27.066Z,4.50
2022-09-11T12:13:56.253Z,4.77
2022-09-11T12:16:28.972Z,5.07
2022-09-11T12:19:15.404Z,4.37
2022-09-11T12:22:11.443Z,5.27
2022-09-11T12:24:59.028Z,4.90
2022-09-11T12:27:55.484Z,3.90
2022-09-11T12:30:26.740Z,5.83
2022-09-11T12:32:55.997Z,5.40
2022-09-11T12:35:35.331Z,6.20
2022-09-11T12:38:13.199Z,7.20
2022-09-11T12:40:48.714Z,5.00
2022-09-11T12:43:28.694Z,8.07
2022-09-11T12:45:56.993Z,4.97
2022-09-11T12:48:33.496Z,4.50
2022-09-11T12:51:04.680Z,5.40
2022-09-11T12:53:35.046Z,5.07
2022-09-11T12:56:06.258Z,5.17
2022-09-11T12:58:38.281Z,6.13
2022-09-11T13:01:18.677Z,5.70
2022-09-11T13:03:59.328Z,5.13
2022-09-11T13:06:39.718Z,4.30
2022-09-11T13:09:17.547Z,4.17
2022-09-11T13:11:48.032Z,5.33
2022-09-11T13:14:46.862Z,4.23
2022-09-11T13:17:18.477Z,4.37
2022-09-11T13:19:46.471Z,5.03
2022-09-11T13:22:27.607Z,3.03
2022-09-11T13:25:12.982Z,4.43
2022-09-11T13:27:43.457Z,4.70
2022-09-11T13:30:14.754Z,3.17
2022-09-11T13:32:43.692Z,4.10
2022-09-11T13:35:16.944Z,3.97
2022-09-11T13:37:54.384Z,3.73
2022-09-11T13:40:27.595Z,4.20
2022-09-11T13:42:55.802Z,4.83
2022-09-11T13:45:26.217Z,4.43
2022-09-11T13:47:54.454Z,4.23
2022-09-11T13:50:24.391Z,3.73
2022-09-11T13:52:55.590Z,3.53
2022-09-11T13:55:26.921Z,3.40
2022-09-11T13:57:57.490Z,3.47
2022-09-11T14:00:39.895Z,4.10
2022-09-11T14:03:15.957Z,4.20
2022-09-11T14:05:51.333Z,3.30
2022-09-11T14:08:25.090Z,4.43
2022-09-11T14:10:56.489Z,3.13
2022-09-11T14:13:29.310Z,3.47
2022-09-11T14:16:00.289Z,3.20
2022-09-11T14:18:35.493Z,2.90
2022-09-11T14:21:06.363Z,2.93
2022-09-11T14:23:43.989Z,3.33
2022-09-11T14:26:15.967Z,2.60
2022-09-11T14:29:00.550Z,3.53
2022-09-11T14:31:36.002Z,2.20
2022-09-11T14:34:17.500Z,2.33
2022-09-11T14:36:49.249Z,2.87
2022-09-11T14:39:25.802Z,2.43
2022-09-11T14:41:55.103Z,1.90
2022-09-11T14:44:26.280Z,2.20
2022-09-11T14:46:54.894Z,2.33
2022-09-11T14:49:23.055Z,2.10
2022-09-11T14:51:55.622Z,2.60
2022-09-11T14:54:25.839Z,2.50
2022-09-11T14:56:54.052Z,2.87
2022-09-11T14:59:22.063Z,2.30
2022-09-11T15:01:51.501Z,2.67
2022-09-11T15:04:22.911Z,2.20
2022-09-11T15:06:53.128Z,3.40
2022-09-11T15:09:21.116Z,2.60
2022-09-11T15:11:53.014Z,3.47
2022-09-11T15:14:44.690Z,3.50
2022-09-11T15:17:12.568Z,2.83
2022-09-11T15:19:40.828Z,5.20
2022-09-11T15:22:09.617Z,3.10
2022-09-11T15:24:37.688Z,2.87
2022-09-11T15:27:07.446Z,2.97
2022-09-11T15:29:36.051Z,3.13
2022-09-11T15:32:04.574Z,3.90
2022-09-11T15:34:33.116Z,4.13
2022-09-11T15:37:01.219Z,4.10
2022-09-11T15:39:29.418Z,4.33
2022-09-11T15:41:57.797Z,4.50
2022-09-11T15:44:28.836Z,4.00
2022-09-11T15:46:58.655Z,3.90
2022-09-11T15:49:29.240Z,4.67
2022-09-11T15:51:57.895Z,4.50
2022-09-11T15:54:27.191Z,4.30
2022-09-11T15:56:55.861Z,4.57
2022-09-11T15:59:24.138Z,3.73
2022-09-11T16:01:53.476Z,3.20
2022-09-11T16:04:23.051Z,4.37
2022-09-11T16:06:53.634Z,3.53
2022-09-11T16:09:23.051Z,3.70
2022-09-11T16:11:51.774Z,6.50
2022-09-11T16:14:21.366Z,4.17
2022-09-11T16:16:49.580Z,30.70
2022-09-11T16:19:20.509Z,8.57
2022-09-11T16:21:49.323Z,3.50
2022-09-11T16:24:17.345Z,4.03
2022-09-11T16:26:45.619Z,3.97
2022-09-11T16:29:15.550Z,6.40
2022-09-11T16:31:43.632Z,4.47
2022-09-11T16:34:15.044Z,4.00
2022-09-11T16:36:44.723Z,3.80
2022-09-11T16:39:14.659Z,4.00
2022-09-11T16:41:42.840Z,4.90
2022-09-11T16:44:13.258Z,3.70
2022-09-11T16:46:42.184Z,4.40
2022-09-11T16:49:11.022Z,3.33
2022-09-11T16:51:38.977Z,4.43
2022-09-11T16:54:08.332Z,3.97
2022-09-11T16:56:36.383Z,5.13
2022-09-11T16:59:05.034Z,2.97
2022-09-11T17:01:33.019Z,3.83
2022-09-11T17:04:01.045Z,5.13
2022-09-11T17:06:32.186Z,3.80
2022-09-11T17:09:01.867Z,3.63
2022-09-11T17:11:33.374Z,5.07
2022-09-11T17:14:02.675Z,6.13
2022-09-11T17:16:32.882Z,4.13
2022-09-11T17:19:02.094Z,4.40
2022-09-11T17:21:35.678Z,5.90
2022-09-11T17:24:05.289Z,5.37
2022-09-11T17:26:36.034Z,3.80
2022-09-11T17:29:04.891Z,4.77
2022-09-11T17:31:33.359Z,11.63
2022-09-11T17:34:01.349Z,6.73
2022-09-11T17:36:29.269Z,7.10
2022-09-11T17:38:59.301Z,5.80
2022-09-11T17:41:27.368Z,5.00
2022-09-11T17:43:56.957Z,4.20
2022-09-11T17:46:25.408Z,3.67
2022-09-11T17:48:53.434Z,7.80
2022-09-11T17:51:24.139Z,6.07
2022-09-11T17:53:55.503Z,11.97
2022-09-11T17:56:26.761Z,5.73
2022-09-11T17:58:57.391Z,5.57
2022-09-11T18:01:30.459Z,4.43
2022-09-11T18:03:59.827Z,5.50
2022-09-11T18:06:30.061Z,8.77
2022-09-11T18:09:01.681Z,7.27
2022-09-11T18:11:30.449Z,8.80
2022-09-11T18:14:00.532Z,7.33
2022-09-11T18:16:28.580Z,10.80
2022-09-11T18:18:57.358Z,10.53
2022-09-11T18:21:25.960Z,6.43
2022-09-11T18:23:54.668Z,5.83
2022-09-11T18:26:25.651Z,7.07
2022-09-11T18:29:00.123Z,7.13
2022-09-11T18:31:30.123Z,7.20
2022-09-11T18:34:00.343Z,6.13
2022-09-11T18:36:29.475Z,6.00
2022-09-11T18:39:00.177Z,7.87
2022-09-11T18:41:29.363Z,6.23
2022-09-11T18:44:00.300Z,6.47
2022-09-11T18:46:28.673Z,7.50
2022-09-11T18:49:00.054Z,6.67
2022-09-11T18:51:28.869Z,7.87
2022-09-11T18:53:57.493Z,6.93
2022-09-11T18:56:28.332Z,6.43
2022-09-11T18:58:56.937Z,6.63
2022-09-11T19:01:29.472Z,10.23
2022-09-11T19:03:57.593Z,6.43
2022-09-11T19:06:27.145Z,7.70
2022-09-11T19:08:56.217Z,8.17
2022-09-11T19:11:26.103Z,9.03
2022-09-11T19:13:56.688Z,8.37
2022-09-11T19:16:26.064Z,7.97
2022-09-11T19:18:55.051Z,9.37
2022-09-11T19:21:24.657Z,9.10
2022-09-11T19:23:55.987Z,7.87
2022-09-11T19:26:25.690Z,7.37
2022-09-11T19:28:55.765Z,7.83
2022-09-11T19:31:25.429Z,7.40
2022-09-11T19:33:55.433Z,7.40
2022-09-11T19:36:25.225Z,10.27
2022-09-11T19:38:55.882Z,8.80
2022-09-11T19:41:25.926Z,8.50
2022-09-11T19:43:54.856Z,7.60
2022-09-11T19:46:25.008Z,7.93
2022-09-11T19:48:56.955Z,8.97
2022-09-11T19:51:27.273Z,9.40
2022-09-11T19:53:57.100Z,11.03
2022-09-11T19:56:25.792Z,12.67
2022-09-11T19:58:54.685Z,9.83
2022-09-11T20:01:25.199Z,12.27
2022-09-11T20:03:55.603Z,9.57
2022-09-11T20:06:24.997Z,10.33
2022-09-11T20:09:13.490Z,8.77
2022-09-11T20:11:43.798Z,9.90
2022-09-11T20:14:12.239Z,10.63
2022-09-11T20:16:40.241Z,9.13
2022-09-11T20:19:10.987Z,7.77
2022-09-11T20:21:39.331Z,11.27
2022-09-11T20:24:07.943Z,9.37
2022-09-11T20:26:36.141Z,12.17
2022-09-11T20:29:06.947Z,8.53
2022-09-11T20:31:42.376Z,8.80
2022-09-11T20:34:14.277Z,7.67
2022-09-11T20:36:42.310Z,8.83
2022-09-11T20:39:13.400Z,9.67
2022-09-11T20:41:41.566Z,8.90
2022-09-11T20:44:09.668Z,8.17
2022-09-11T20:46:37.829Z,8.77
2022-09-11T20:49:06.402Z,9.77
2022-09-11T20:51:35.921Z,8.83
2022-09-11T20:54:04.149Z,9.13
2022-09-11T20:56:35.003Z,9.93
2022-09-11T20:59:02.995Z,7.73
2022-09-11T21:01:33.125Z,9.03
2022-09-11T21:04:03.279Z,9.43
2022-09-11T21:06:34.309Z,8.87
2022-09-11T21:09:06.880Z,7.97
2022-09-11T21:11:36.320Z,6.73
2022-09-11T21:14:04.374Z,9.03
2022-09-11T21:16:32.816Z,7.60
2022-09-11T21:19:01.912Z,7.30
2022-09-11T21:21:30.621Z,7.70
2022-09-11T21:24:01.218Z,8.47
2022-09-11T21:26:31.462Z,8.53
2022-09-11T21:29:00.943Z,7.03
2022-09-11T21:31:29.457Z,7.40
2022-09-11T21:33:58.038Z,7.87
2022-09-11T21:36:26.191Z,8.17
2022-09-11T21:38:54.309Z,6.73
2022-09-11T21:41:22.320Z,7.33
2022-09-11T21:43:52.002Z,7.40
2022-09-11T21:46:20.052Z,5.90
2022-09-11T21:48:48.013Z,7.97
2022-09-11T21:51:18.520Z,4.23
2022-09-11T21:53:48.384Z,5.27
2022-09-11T21:56:19.269Z,4.30
2022-09-11T21:58:48.079Z,4.90
2022-09-11T22:01:17.885Z,4.87
2022-09-11T22:03:46.078Z,4.77
2022-09-11T22:06:14.699Z,5.23
2022-09-11T22:08:45.166Z,5.10
2022-09-11T22:11:13.467Z,4.60
2022-09-11T22:13:41.589Z,5.87
2022-09-11T22:16:12.405Z,4.27
2022-09-11T22:18:42.126Z,4.07
2022-09-11T22:21:11.244Z,3.53
2022-09-11T22:23:39.367Z,3.33
2022-09-11T22:26:09.369Z,3.33
2022-09-11T22:28:38.141Z,4.03
2022-09-11T22:31:08.709Z,5.03
2022-09-11T22:33:38.643Z,2.97
2022-09-11T22:36:13.572Z,2.70
2022-09-11T22:38:42.856Z,3.53
2022-09-11T22:41:11.035Z,2.53
2022-09-11T22:43:39.379Z,2.70
2022-09-11T22:46:07.631Z,2.57
2022-09-11T22:48:35.691Z,2.90
2022-09-11T22:51:04.780Z,2.57
2022-09-11T22:53:34.287Z,2.50
2022-09-11T22:56:02.583Z,2.53
2022-09-11T22:58:31.546Z,2.27
2022-09-11T23:01:00.969Z,2.30
2022-09-11T23:03:29.091Z,2.30
2022-09-11T23:06:14.561Z,2.33
2022-09-11T23:08:45.626Z,2.13
2022-09-11T23:11:15.161Z,2.40
2022-09-11T23:13:44.262Z,2.90
2022-09-11T23:16:15.217Z,2.33
2022-09-11T23:18:44.233Z,2.10
2022-09-11T23:21:12.573Z,2.67
2022-09-11T23:23:42.848Z,2.33
2022-09-11T23:26:14.486Z,2.10
2022-09-11T23:28:42.787Z,2.37
2022-09-11T23:31:15.356Z,2.20
2022-09-11T23:33:44.352Z,2.40
2022-09-11T23:36:15.791Z,2.17
2022-09-11T23:38:45.522Z,3.00
2022-09-11T23:41:15.629Z,2.47
2022-09-11T23:43:43.883Z,3.27
2022-09-11T23:46:12.611Z,2.30
2022-09-11T23:48:40.767Z,2.50
2022-09-11T23:51:10.469Z,2.60
2022-09-11T23:53:40.141Z,2.07
2022-09-11T23:56:08.677Z,2.63
2022-09-11T23:58:40.252Z,2.50
